Flight Track Log - Related Links

Times and Time Zones

All times are in EDT time to prevent confusion due to time zone crossing. See the DAL3688 flight status page for this flight to view local times or setup timezone preferences in your user account.

Time Position Orientation Groundspeed Altitude Reporting Facility
EDT Latitude Longitude Course Direction KTS MPH feet Rate Location/Type
Sat 12:40:00 PM 40.2877 -77.0298 294° West  Level FlightAware Approximate
Sat 12:40:36 PM 40.1947 -76.9642 247° West 237 273 7,600  Level New York Center
Sat 12:41:00 PM 40.2758 -77.1273 242° Southwest  Level FlightAware Approximate
Sat 12:41:34 PM 40.1753 -77.0603 255° West 245 282 10,100  Level New York Center
Sat 12:42:00 PM 40.2373 -77.2235 242° Southwest  Level FlightAware Approximate
Sat 12:42:34 PM 40.1706 -77.1439 266° West 252 290 11,700  Level New York Center
Sat 12:43:00 PM 40.1978 -77.3189 241° Southwest  Level FlightAware Approximate
Sat 12:43:34 PM 40.1625 -77.2575 265° West 281 323 14,400  Level New York Center
Sat 12:44:00 PM 40.1510 -77.4310 241° Southwest  Level FlightAware Approximate
Sat 12:44:35 PM 40.1572 -77.3519 266° West 294 338 16,000  Level New York Center
Sat 12:45:00 PM 40.1173 -77.5317 247° West  Level FlightAware Approximate
Sat 12:45:35 PM 40.1486 -77.4681 264° West 294 338 17,800  Level New York Center
Sat 12:46:36 PM 40.1403 -77.5758 264° West 299 344 19,300 1,455 Climbing New York Center
Sat 12:48:57 PM 40.1281 -77.8433 267° West 309 356 22,700 1,373 Climbing Cleveland Center
Sat 12:49:57 PM 40.1161 -77.9633 263° West 321 369 23,900 1,050 Climbing Cleveland Center
Sat 12:50:57 PM 40.1064 -78.0831 264° West 333 383 24,800 950 Climbing Cleveland Center
Sat 12:51:57 PM 40.0964 -78.2028 264° West 333 383 25,800 600 Climbing Cleveland Center
Sat 12:52:57 PM 40.1158 -78.3297 281° West 339 390 26,000 100 Climbing Cleveland Center
Sat 12:53:57 PM 40.1494 -78.4617 288° West 365 420 26,000  Level Cleveland Center
Sat 12:54:57 PM 40.1811 -78.5967 287° West 376 433 26,000  Level Cleveland Center
Sat 12:55:57 PM 40.2125 -78.7289 287° West 376 433 26,000  Level Cleveland Center
Sat 12:56:57 PM 40.2439 -78.8614 287° West 376 433 26,000  Level Cleveland Center
Sat 12:57:57 PM 40.2750 -78.9911 287° West 376 433 26,000  Level Cleveland Center
Sat 12:58:57 PM 40.3058 -79.1239 287° West 376 433 26,000  Level Cleveland Center
Sat 12:59:57 PM 40.3367 -79.2567 287° West 376 433 26,000  Level Cleveland Center
Sat 01:00:57 PM 40.3672 -79.3758 289° West 376 433 26,000  Level Cleveland Center
Sat 01:01:57 PM 40.3978 -79.5061 287° West 376 433 26,000  Level Cleveland Center
Sat 01:02:57 PM 40.4258 -79.6339 286° West 376 433 26,000  Level Cleveland Center
Sat 01:03:57 PM 40.4561 -79.7644 287° West 376 433 26,000  Level Cleveland Center
Sat 01:04:57 PM 40.5008 -79.9058 293° West 381 438 26,000  Level Cleveland Center
Sat 01:05:57 PM 40.5494 -80.0311 297° West 386 444 26,000  Level Cleveland Center
Sat 01:06:57 PM 40.6000 -80.1567 298° West 386 444 26,000  Level Cleveland Center
Sat 01:07:57 PM 40.6483 -80.2794 297° West 386 444 26,000  Level Cleveland Center
Sat 01:08:57 PM 40.6925 -80.3914 298° West 379 436 26,000  Level Cleveland Center
Sat 01:09:57 PM 40.7425 -80.5172 298° West 389 448 26,000  Level Cleveland Center
Sat 01:10:57 PM 40.7967 -80.6381 301° West 395 455 26,000  Level Cleveland Center
Sat 01:11:57 PM 40.8611 -80.7725 302° West 395 455 26,000  Level Cleveland Center
Sat 01:12:57 PM 40.9172 -80.8992 300° West 400 460 26,000  Level Cleveland Center
Sat 01:13:57 PM 40.9731 -81.0286 300° West 400 460 26,000  Level Cleveland Center
Sat 01:14:57 PM 41.0289 -81.1611 299° West 405 466 26,000  Level Cleveland Center
Sat 01:15:57 PM 41.0844 -81.2883 300° West 398 458 26,000  Level Cleveland Center
Sat 01:16:57 PM 41.1294 -81.3908 300° West 404 465 26,000  Level Cleveland Center
Sat 01:17:57 PM 41.1992 -81.5381 302° West 399 459 26,000  Level Cleveland Center
Sat 01:18:57 PM 41.2564 -81.6686 300° West 399 459 26,000  Level Cleveland Center
Sat 01:19:57 PM 41.3114 -81.7967 300° West 399 459 26,000  Level Cleveland Center
Sat 01:20:57 PM 41.3664 -81.9278 299° West 399 459 26,000 -1,000 Level Cleveland Center
Sat 01:21:57 PM 41.4189 -82.0561 299° West 399 459 24,000 -2,000 Descending Cleveland Center
Sat 01:22:57 PM 41.4714 -82.1767 300° West 394 453 22,000 -2,000 Descending Cleveland Center
Sat 01:23:57 PM 41.5200 -82.2914 300° West 372 428 20,000 -2,000 Descending Cleveland Center
Sat 01:24:57 PM 41.5681 -82.4094 299° West 361 415 18,000 -1,898 Descending Cleveland Center
Sat 01:25:35 PM 41.5983 -82.4742 302° West 354 407 16,900 -1,900 Descending Cleveland Center
Sat 01:25:57 PM 41.6161 -82.5247 295° West 357 411 16,100 -2,000 Descending Cleveland Center
Sat 01:26:29 PM 41.6422 -82.5836 301° West 361 415 15,100 -1,700 Descending Cleveland Center
Sat 01:26:57 PM 41.6583 -82.6258 297° West 357 411 14,400 -1,967 Descending Cleveland Center
Sat 01:27:30 PM 41.6922 -82.6992 302° West 354 407 13,100 -2,000 Descending Cleveland Center
Sat 01:27:57 PM 41.7061 -82.7386 295° West 357 411 12,400 -1,100 Descending Cleveland Center
Sat 01:28:30 PM 41.7506 -82.8097 310° West 359 413 12,000 -400 Descending Cleveland Center
Sat 01:28:57 PM 41.7689 -82.8356 314° West 352 405 12,000  Level Cleveland Center
Sat 01:29:25 PM 41.8139 -82.8844 321° Northwest 352 405 12,000  Level Cleveland Center
Sat 01:29:57 PM 41.8422 -82.9244 314° West 347 399 12,000  Level Cleveland Center
Sat 01:30:32 PM 41.8950 -82.9878 318° Northwest 353 406 12,000  Level Cleveland Center
Sat 01:30:57 PM 41.9156 -83.0108 320° Northwest 347 399 12,000  Level Cleveland Center
Sat 01:31:38 PM 41.9744 -83.0800 319° Northwest 352 405 12,000  Level Cleveland Center
Sat 01:31:57 PM 41.9886 -83.0975 317° Northwest 347 399 12,000  Level Cleveland Center
Sat 01:32:33 PM 42.0414 -83.1583 319° Northwest 352 405 12,000  Level Cleveland Center
Sat 01:32:57 PM 42.0617 -83.1842 317° Northwest 352 405 12,000  Level Cleveland Center
Sat 01:33:34 PM 42.1108 -83.2311 325° Northwest 295 339 12,000 -185 Level Cleveland Center
Sat 01:34:02 PM 42.1436 -83.2350 355° North 253 291 11,800 -875 Descending FAA TRACON SMA TRACON (SMA)
Sat 01:34:22 PM 42.1686 -83.2194 25° Northeast 259 298 11,300 -1,610 Descending FAA TRACON SMA TRACON (SMA)
Sat 01:34:43 PM 42.1881 -83.2058 27° Northeast 259 298 10,700 -1,800 Descending FAA TRACON SMA TRACON (SMA)
Sat 01:35:02 PM 42.2072 -83.1922 28° Northeast 253 291 10,100 -2,154 Descending FAA TRACON SMA TRACON (SMA)
Sat 01:35:22 PM 42.2303 -83.1778 25° Northeast 239 275 9,300 -2,100 Descending FAA TRACON SMA TRACON (SMA)
Sat 01:35:42 PM 42.2489 -83.1697 18° North 228 262 8,700 -1,650 Descending FAA TRACON SMA TRACON (SMA)
Sat 01:36:02 PM 42.2653 -83.1608 22° Northeast 226 260 8,200 -2,100 Descending FAA TRACON SMA TRACON (SMA)
Sat 01:36:22 PM 42.2894 -83.1525 14° North 221 254 7,300 -2,250 Descending FAA TRACON SMA TRACON (SMA)
Sat 01:36:42 PM 42.3075 -83.1453 16° North 220 253 6,700 -1,800 Descending FAA TRACON SMA TRACON (SMA)
Sat 01:37:02 PM 42.3239 -83.1433 North 216 249 6,100 -2,049 Descending FAA TRACON SMA TRACON (SMA)
Sat 01:37:23 PM 42.3386 -83.1672 310° West 201 231 5,300 -2,100 Descending FAA TRACON SMA TRACON (SMA)
Sat 01:37:42 PM 42.3456 -83.1889 293° West 202 232 4,700 -2,154 Descending FAA TRACON SMA TRACON (SMA)
Sat 01:38:02 PM 42.3492 -83.2156 280° West 202 232 3,900 -1,610 Descending FAA TRACON SMA TRACON (SMA)
Sat 01:38:23 PM 42.3406 -83.2336 237° Southwest 196 226 3,600 -1,024 Descending FAA TRACON SMA TRACON (SMA)
Sat 01:38:43 PM 42.3253 -83.2514 221° Southwest 193 222 3,200 -1,231 Descending FAA TRACON SMA TRACON (SMA)
Sat 01:39:02 PM 42.3106 -83.2653 215° Southwest 184 212 2,800 -1,077 Descending FAA TRACON SMA TRACON (SMA)
Sat 01:39:22 PM 42.2992 -83.2758 214° Southwest 173 199 2,500 -900 Descending FAA TRACON SMA TRACON (SMA)
Sat 01:39:42 PM 42.2836 -83.2881 210° Southwest 176 203 2,200 -900 Descending FAA TRACON SMA TRACON (SMA)

Login

Don't have an account? Register now (free) for customized features, flight alerts, and more!